Time;durP1;ratioP1;P1;durP2;ratioP2;P2;SDS_P1;SDS_P2;PMS_P1;PMS_P2;Temp;Humidity;BMP_temperature;BMP_pressure;BME280_temperature;BME280_humidity;BME280_pressure;Samples;Min_cycle;Max_cycle;Signal;HPM_P1;HPM_P2
2023/03/20 00:00:20;;;;;;;6.27;4.00;;;12.70;99.90;;;;;;5054598;28;20545;-67
2023/03/20 00:02:47;;;;;;;4.70;4.30;;;12.60;99.90;;;;;;5054276;28;20502;-67
2023/03/20 00:05:20;;;;;;;6.50;4.23;;;12.60;99.90;;;;;;5054314;28;20555;-67
2023/03/20 00:07:49;;;;;;;4.80;3.90;;;12.60;99.90;;;;;;5054206;28;20501;-67
2023/03/20 00:10:18;;;;;;;4.83;4.07;;;12.50;99.90;;;;;;5054371;28;20856;-65
2023/03/20 00:12:48;;;;;;;7.17;4.37;;;12.40;99.90;;;;;;5054019;28;20455;-67
2023/03/20 00:15:26;;;;;;;5.33;4.30;;;12.40;99.90;;;;;;5056347;28;20585;-67
2023/03/20 00:17:53;;;;;;;5.27;4.20;;;12.40;99.90;;;;;;5058061;28;20490;-66
2023/03/20 00:20:21;;;;;;;5.23;4.17;;;12.40;99.90;;;;;;5057924;28;20463;-66
2023/03/20 00:22:48;;;;;;;6.50;4.83;;;12.40;99.90;;;;;;5058023;28;20459;-66
2023/03/20 00:25:16;;;;;;;5.00;4.23;;;12.40;99.90;;;;;;5058662;28;20783;-65
2023/03/20 00:27:44;;;;;;;5.20;4.47;;;12.30;99.90;;;;;;5058352;28;20465;-66
2023/03/20 00:30:21;;;;;;;4.73;4.33;;;12.30;99.90;;;;;;5058034;28;20993;-66
2023/03/20 00:32:49;;;;;;;4.80;4.30;;;12.30;99.90;;;;;;5058157;28;20470;-67
2023/03/20 00:35:22;;;;;;;6.37;5.00;;;12.30;99.90;;;;;;5058061;28;20908;-67
2023/03/20 00:37:50;;;;;;;5.23;4.73;;;12.30;99.90;;;;;;5058080;28;20435;-67
2023/03/20 00:40:17;;;;;;;7.33;5.37;;;12.20;99.90;;;;;;5058122;28;20534;-66
2023/03/20 00:42:46;;;;;;;5.27;4.53;;;12.10;99.90;;;;;;5057735;28;20512;-66
2023/03/20 00:45:17;;;;;;;4.80;4.30;;;12.20;99.90;;;;;;5057598;28;20923;-66
2023/03/20 00:47:45;;;;;;;5.50;4.87;;;12.20;99.90;;;;;;5057952;28;20439;-67
2023/03/20 00:50:17;;;;;;;7.63;5.73;;;12.20;99.90;;;;;;5057867;28;20908;-67
2023/03/20 00:52:44;;;;;;;8.17;6.03;;;12.00;99.90;;;;;;5057193;28;20483;-66
2023/03/20 00:55:11;;;;;;;10.03;7.00;;;11.90;99.90;;;;;;5058102;28;20859;-62
2023/03/20 00:57:42;;;;;;;8.67;7.07;;;12.00;99.90;;;;;;5057343;28;20455;-62
2023/03/20 01:00:21;;;;;;;10.63;8.00;;;12.00;99.90;;;;;;5057149;28;20454;-61
2023/03/20 01:02:48;;;;;;;11.43;7.20;;;12.00;99.90;;;;;;5057591;28;20762;-62
2023/03/20 01:05:15;;;;;;;9.53;6.70;;;12.00;99.90;;;;;;5057014;28;20499;-63
2023/03/20 01:07:43;;;;;;;8.40;6.80;;;12.00;99.90;;;;;;5057149;28;20465;-62
2023/03/20 01:10:11;;;;;;;8.80;5.90;;;12.00;99.90;;;;;;5056841;28;20550;-62
2023/03/20 01:12:39;;;;;;;7.83;5.10;;;12.00;99.90;;;;;;5057532;28;20475;-62
2023/03/20 01:15:16;;;;;;;6.67;5.30;;;12.00;99.90;;;;;;5056727;28;20486;-61
2023/03/20 01:17:45;;;;;;;9.00;5.40;;;11.90;99.90;;;;;;5057228;28;20454;-63
2023/03/20 01:20:16;;;;;;;6.17;5.07;;;11.90;99.90;;;;;;5056433;28;20459;-63
2023/03/20 01:22:43;;;;;;;7.20;6.50;;;11.90;99.90;;;;;;5056989;28;20436;-62
2023/03/20 01:25:11;;;;;;;6.67;5.97;;;11.90;99.90;;;;;;5056739;28;20820;-63
2023/03/20 01:27:38;;;;;;;7.23;6.20;;;11.90;99.90;;;;;;5057439;28;20787;-63
2023/03/20 01:30:17;;;;;;;6.00;5.50;;;11.90;99.90;;;;;;5056521;28;20459;-63
2023/03/20 01:32:47;;;;;;;6.90;5.90;;;11.90;99.90;;;;;;5056776;28;20789;-63
2023/03/20 01:35:15;;;;;;;8.80;5.80;;;11.90;99.90;;;;;;5056561;28;20455;-61
2023/03/20 01:37:43;;;;;;;7.90;5.90;;;12.00;99.90;;;;;;5056371;28;20471;-63
2023/03/20 01:40:19;;;;;;;7.30;5.63;;;12.00;99.90;;;;;;5056686;28;20459;-62
2023/03/20 01:42:46;;;;;;;7.10;5.30;;;12.00;99.90;;;;;;5056540;28;20435;-62
2023/03/20 01:45:19;;;;;;;7.80;5.67;;;12.00;99.90;;;;;;5056332;28;20529;-62
2023/03/20 01:47:47;;;;;;;6.30;5.70;;;12.00;99.90;;;;;;5056339;28;20547;-62
2023/03/20 01:50:26;;;;;;;9.70;6.87;;;12.00;99.90;;;;;;5056422;28;20473;-63
2023/03/20 01:52:59;;;;;;;7.93;6.20;;;12.10;99.90;;;;;;5056556;28;20467;-63
2023/03/20 01:55:26;;;;;;;6.33;5.33;;;12.00;99.90;;;;;;5056195;28;20955;-63
2023/03/20 01:57:57;;;;;;;8.47;5.70;;;12.00;99.90;;;;;;5056483;28;20550;-64
2023/03/20 02:00:24;;;;;;;6.80;5.83;;;12.00;99.90;;;;;;5056207;28;20497;-63
2023/03/20 02:02:53;;;;;;;9.87;6.00;;;12.00;99.90;;;;;;5056443;28;20542;-64
2023/03/20 02:05:23;;;;;;;6.97;6.20;;;12.10;99.90;;;;;;5056102;28;20849;-62
2023/03/20 02:07:58;;;;;;;7.43;6.30;;;12.10;99.90;;;;;;5056445;28;20458;-63
2023/03/20 02:10:26;;;;;;;11.97;7.00;;;12.10;99.90;;;;;;5055583;28;20538;-62
2023/03/20 02:12:53;;;;;;;11.23;7.20;;;12.00;99.90;;;;;;5055988;28;20509;-62
2023/03/20 02:15:20;;;;;;;9.97;7.40;;;11.90;99.90;;;;;;5055751;28;20482;-62
2023/03/20 02:17:47;;;;;;;9.67;7.00;;;11.80;99.90;;;;;;5055829;28;20931;-62
2023/03/20 02:20:27;;;;;;;11.03;6.37;;;11.80;99.90;;;;;;5056054;28;20461;-63
2023/03/20 02:23:39;;;;;;;8.90;7.10;;;11.80;99.90;;;;;;5055998;28;20439;-63
2023/03/20 02:26:26;;;;;;;9.23;6.47;;;11.80;99.90;;;;;;5055494;28;20439;-62
2023/03/20 02:29:28;;;;;;;8.53;7.17;;;11.70;99.90;;;;;;5055824;28;20526;-63
2023/03/20 02:32:42;;;;;;;8.53;6.83;;;11.70;99.90;;;;;;5055549;28;20528;-63
2023/03/20 02:35:55;;;;;;;10.63;7.13;;;11.60;99.90;;;;;;5009044;28;20789;-67
2023/03/20 02:38:37;;;;;;;8.60;6.83;;;11.60;99.90;;;;;;5022406;28;20932;-66
2023/03/20 02:41:13;;;;;;;8.47;5.97;;;11.60;99.90;;;;;;5056593;28;20613;-66
2023/03/20 02:43:48;;;;;;;9.07;6.80;;;11.60;99.90;;;;;;5056311;28;20435;-65
2023/03/20 02:46:26;;;;;;;7.67;6.83;;;11.60;99.90;;;;;;5056694;28;20522;-66
2023/03/20 02:48:59;;;;;;;9.00;6.83;;;11.60;99.90;;;;;;5056005;28;20526;-66
2023/03/20 02:51:34;;;;;;;9.20;7.30;;;11.50;99.90;;;;;;5056796;28;20793;-66
2023/03/20 02:54:08;;;;;;;8.40;7.63;;;11.40;99.90;;;;;;5057379;28;20828;-66
2023/03/20 02:56:42;;;;;;;7.93;7.10;;;11.50;99.90;;;;;;5056265;28;20880;-66
2023/03/20 02:59:17;;;;;;;8.40;7.50;;;11.40;99.90;;;;;;5056370;28;20442;-66
2023/03/20 03:01:51;;;;;;;8.83;6.20;;;11.40;99.90;;;;;;5056232;28;20537;-65
2023/03/20 03:04:22;;;;;;;8.10;7.07;;;11.40;99.90;;;;;;5055873;28;20443;-66
2023/03/20 03:06:54;;;;;;;7.70;7.00;;;11.50;99.90;;;;;;5056110;28;20454;-65
2023/03/20 03:09:25;;;;;;;8.00;7.20;;;11.50;99.90;;;;;;5056942;28;20735;-65
2023/03/20 03:11:56;;;;;;;9.17;7.07;;;11.50;99.90;;;;;;5056764;28;20574;-66
2023/03/20 03:14:32;;;;;;;8.00;7.20;;;11.50;99.90;;;;;;5056454;28;20454;-65
2023/03/20 03:17:01;;;;;;;10.00;7.47;;;11.40;99.90;;;;;;5055684;28;20439;-66
2023/03/20 03:19:29;;;;;;;8.73;7.87;;;11.30;99.90;;;;;;5055593;28;20478;-66
2023/03/20 03:21:56;;;;;;;10.53;8.20;;;11.30;99.90;;;;;;5056173;28;20477;-66
2023/03/20 03:24:32;;;;;;;8.47;7.57;;;11.30;99.90;;;;;;5055899;28;20555;-66
2023/03/20 03:27:01;;;;;;;8.80;7.80;;;11.30;99.90;;;;;;5055601;28;20450;-66
2023/03/20 03:29:33;;;;;;;8.70;7.73;;;11.40;99.90;;;;;;5055798;28;20451;-66
2023/03/20 03:32:01;;;;;;;10.30;8.30;;;11.30;99.90;;;;;;5055986;28;20562;-66
2023/03/20 03:34:30;;;;;;;9.60;7.67;;;11.30;99.90;;;;;;5055752;28;20467;-66
2023/03/20 03:37:04;;;;;;;9.93;8.20;;;11.20;99.90;;;;;;5055473;28;20557;-66
2023/03/20 03:39:39;;;;;;;10.53;8.30;;;11.20;99.90;;;;;;5055298;28;20887;-66
2023/03/20 03:42:10;;;;;;;9.73;8.73;;;11.10;99.90;;;;;;5056047;28;20831;-66
2023/03/20 03:44:44;;;;;;;10.40;9.30;;;11.00;99.90;;;;;;5055752;28;20824;-66
2023/03/20 03:47:15;;;;;;;9.90;8.43;;;11.00;99.90;;;;;;5055466;28;20440;-66
2023/03/20 03:49:47;;;;;;;12.30;9.80;;;10.90;99.90;;;;;;5055164;28;20443;-66
2023/03/20 03:52:17;;;;;;;9.97;8.90;;;11.00;99.90;;;;;;5055719;28;20544;-66
2023/03/20 03:54:49;;;;;;;12.60;9.10;;;10.90;99.90;;;;;;5055599;28;20439;-66
2023/03/20 03:57:20;;;;;;;10.40;9.37;;;11.00;99.90;;;;;;5054853;28;20451;-66
2023/03/20 03:59:50;;;;;;;9.67;8.20;;;11.00;99.90;;;;;;5055733;28;20462;-66
2023/03/20 04:02:20;;;;;;;10.37;9.37;;;10.90;99.90;;;;;;5055269;28;20530;-66
2023/03/20 04:04:50;;;;;;;9.57;8.63;;;10.80;99.90;;;;;;5055401;28;20490;-66
2023/03/20 04:07:18;;;;;;;11.67;9.90;;;10.70;99.90;;;;;;5055623;28;20850;-66
2023/03/20 04:09:46;;;;;;;9.23;8.33;;;10.70;99.90;;;;;;5055373;28;20455;-66
2023/03/20 04:12:31;;;;;;;11.03;9.10;;;10.70;99.90;;;;;;5054949;28;20483;-66
2023/03/20 04:14:58;;;;;;;9.83;8.57;;;10.70;99.90;;;;;;5054837;28;20487;-66
2023/03/20 04:17:25;;;;;;;12.30;9.90;;;10.60;99.90;;;;;;5055113;28;20494;-66
2023/03/20 04:19:52;;;;;;;15.00;9.97;;;10.60;99.90;;;;;;5055476;28;20465;-66
2023/03/20 04:22:19;;;;;;;10.40;9.03;;;10.60;99.90;;;;;;5055350;28;20549;-66
2023/03/20 04:24:47;;;;;;;11.70;10.33;;;10.60;99.90;;;;;;5055702;28;20465;-67
2023/03/20 04:27:14;;;;;;;10.50;9.23;;;10.60;99.90;;;;;;5055679;28;20469;-65
2023/03/20 04:29:41;;;;;;;10.53;9.43;;;10.60;99.90;;;;;;5055406;28;20459;-66
2023/03/20 04:32:07;;;;;;;11.87;9.17;;;10.70;99.90;;;;;;5054864;28;20489;-66
2023/03/20 04:34:34;;;;;;;10.90;9.40;;;10.70;99.90;;;;;;5055290;28;20455;-66
2023/03/20 04:37:01;;;;;;;10.20;9.13;;;10.60;99.90;;;;;;5054870;28;20486;-66
2023/03/20 04:39:28;;;;;;;11.27;9.50;;;10.70;99.90;;;;;;5055103;28;20465;-66
2023/03/20 04:41:57;;;;;;;11.57;9.40;;;10.70;99.90;;;;;;5054798;28;20465;-66
2023/03/20 04:44:23;;;;;;;13.30;10.47;;;10.70;99.90;;;;;;5054776;28;20466;-67
2023/03/20 04:46:50;;;;;;;13.90;10.87;;;10.70;99.90;;;;;;5054669;28;20465;-67
2023/03/20 04:49:17;;;;;;;12.10;10.47;;;10.70;99.90;;;;;;5055011;28;20467;-67
2023/03/20 04:51:44;;;;;;;12.33;10.37;;;10.80;99.90;;;;;;5054798;28;20857;-67
2023/03/20 04:54:11;;;;;;;13.50;10.73;;;10.70;99.90;;;;;;5054385;28;20465;-67
2023/03/20 04:56:38;;;;;;;11.93;9.80;;;10.80;99.90;;;;;;5055143;28;20465;-67
2023/03/20 04:59:06;;;;;;;12.13;10.57;;;10.90;99.90;;;;;;5055164;28;20465;-66
2023/03/20 05:01:33;;;;;;;12.07;10.80;;;10.90;99.90;;;;;;5057769;28;20849;-66
2023/03/20 05:04:00;;;;;;;12.50;11.20;;;10.90;99.90;;;;;;5058299;28;20534;-66
2023/03/20 05:06:27;;;;;;;12.40;10.20;;;11.00;99.90;;;;;;5058549;28;20470;-66
2023/03/20 05:08:54;;;;;;;14.80;11.63;;;10.90;99.90;;;;;;5058701;28;20463;-66
2023/03/20 05:11:21;;;;;;;11.60;10.40;;;10.70;99.90;;;;;;5058419;28;20915;-66
2023/03/20 05:13:47;;;;;;;11.67;10.43;;;10.70;99.90;;;;;;5059094;28;20765;-66
2023/03/20 05:16:16;;;;;;;13.97;11.17;;;10.70;99.90;;;;;;5057849;28;20489;-66
2023/03/20 05:18:42;;;;;;;16.13;11.07;;;10.80;99.90;;;;;;5058374;28;20462;-66
2023/03/20 05:21:09;;;;;;;13.00;11.53;;;10.80;99.90;;;;;;5058515;28;20459;-64
2023/03/20 05:23:36;;;;;;;13.63;12.00;;;10.90;99.90;;;;;;5058709;28;20496;-66
2023/03/20 05:26:03;;;;;;;15.00;11.73;;;10.90;99.90;;;;;;5058503;28;20465;-66
2023/03/20 05:28:31;;;;;;;14.33;12.60;;;10.90;99.90;;;;;;5057882;28;20924;-66
2023/03/20 05:30:58;;;;;;;13.40;11.70;;;10.90;99.90;;;;;;5058195;28;20465;-67
2023/03/20 05:33:26;;;;;;;13.53;12.10;;;10.90;99.90;;;;;;5058061;28;20482;-66
2023/03/20 05:35:53;;;;;;;17.77;11.83;;;10.90;99.90;;;;;;5058169;28;20599;-67
2023/03/20 05:38:21;;;;;;;13.17;11.47;;;10.80;99.90;;;;;;5057401;28;20470;-66
2023/03/20 05:40:48;;;;;;;15.93;12.03;;;10.80;99.90;;;;;;5057805;28;20451;-65
2023/03/20 05:43:15;;;;;;;13.63;12.23;;;10.90;99.90;;;;;;5057705;28;20461;-66
2023/03/20 05:45:43;;;;;;;16.90;12.77;;;10.80;99.90;;;;;;5057694;28;20460;-66
2023/03/20 05:48:09;;;;;;;14.80;12.80;;;10.70;99.90;;;;;;5057927;28;20477;-66
2023/03/20 05:50:38;;;;;;;16.53;13.70;;;10.70;99.90;;;;;;5058080;28;20538;-66
2023/03/20 05:53:05;;;;;;;13.40;11.70;;;10.60;99.90;;;;;;5057855;28;20491;-66
2023/03/20 05:55:32;;;;;;;17.37;13.50;;;10.50;99.90;;;;;;5057637;28;20531;-66
2023/03/20 05:57:59;;;;;;;16.37;13.03;;;10.60;99.90;;;;;;5058014;28;20466;-66
2023/03/20 06:00:26;;;;;;;19.43;14.23;;;10.50;99.90;;;;;;5057607;28;20465;-65
2023/03/20 06:02:53;;;;;;;18.77;13.90;;;10.50;99.90;;;;;;5057320;28;20451;-66
2023/03/20 06:05:20;;;;;;;17.17;13.50;;;10.40;99.90;;;;;;5057290;28;20490;-67
2023/03/20 06:07:48;;;;;;;17.27;13.57;;;10.30;99.90;;;;;;5057174;28;20465;-66
2023/03/20 06:10:15;;;;;;;17.10;14.27;;;10.30;99.90;;;;;;5057039;28;20455;-67
2023/03/20 06:12:42;;;;;;;22.40;15.50;;;10.30;99.90;;;;;;5055945;28;20575;-63
2023/03/20 06:15:09;;;;;;;18.10;15.33;;;10.30;99.90;;;;;;5056329;28;20590;-64
2023/03/20 06:17:36;;;;;;;19.70;15.10;;;10.20;99.90;;;;;;5055997;28;20466;-62
2023/03/20 06:20:04;;;;;;;25.50;18.00;;;10.00;99.90;;;;;;5055685;28;20465;-62
2023/03/20 06:22:31;;;;;;;21.00;17.23;;;9.90;99.90;;;;;;5056046;28;20451;-63
2023/03/20 06:25:00;;;;;;;20.17;16.33;;;9.90;99.90;;;;;;5055860;28;20531;-63
2023/03/20 06:27:27;;;;;;;22.97;17.07;;;9.90;99.90;;;;;;5055964;28;20931;-62
2023/03/20 06:29:53;;;;;;;20.33;16.60;;;9.90;99.90;;;;;;5056066;28;20493;-63
2023/03/20 06:32:21;;;;;;;20.10;16.20;;;9.90;99.90;;;;;;5055535;28;20958;-63
2023/03/20 06:34:48;;;;;;;20.60;16.57;;;9.80;99.90;;;;;;5055996;28;20455;-63
2023/03/20 06:37:15;;;;;;;24.10;18.13;;;9.80;99.90;;;;;;5055639;28;20542;-63
2023/03/20 06:39:42;;;;;;;22.83;18.37;;;9.80;99.90;;;;;;5055714;28;20455;-63
2023/03/20 06:42:11;;;;;;;24.67;18.83;;;9.80;99.90;;;;;;5055517;28;20524;-63
2023/03/20 06:44:38;;;;;;;25.50;19.03;;;9.80;99.90;;;;;;5056750;28;20842;-63
2023/03/20 06:47:05;;;;;;;27.67;20.73;;;9.70;99.90;;;;;;5055318;28;20928;-63
2023/03/20 06:49:32;;;;;;;29.03;19.67;;;9.70;99.90;;;;;;5055373;28;20555;-64
2023/03/20 06:51:59;;;;;;;31.40;20.70;;;9.70;99.90;;;;;;5056150;28;20455;-63
2023/03/20 06:54:26;;;;;;;29.67;21.50;;;9.70;99.90;;;;;;5055270;28;20479;-63
2023/03/20 06:56:55;;;;;;;33.10;22.10;;;9.60;99.90;;;;;;5055633;28;20497;-62
2023/03/20 06:59:23;;;;;;;37.40;23.80;;;9.50;99.90;;;;;;5055517;28;20459;-64
2023/03/20 07:01:51;;;;;;;37.23;23.20;;;9.60;99.90;;;;;;5055541;28;20459;-63
2023/03/20 07:04:18;;;;;;;34.90;22.50;;;9.60;99.90;;;;;;5055461;28;20781;-63
2023/03/20 07:06:45;;;;;;;37.20;24.60;;;9.70;99.90;;;;;;5055268;28;20459;-63
2023/03/20 07:09:16;;;;;;;35.50;24.07;;;9.60;99.90;;;;;;5055399;28;20459;-62
2023/03/20 07:11:43;;;;;;;34.23;23.27;;;9.50;99.90;;;;;;5055879;28;20443;-63
2023/03/20 07:14:10;;;;;;;33.93;23.03;;;9.60;99.90;;;;;;5054766;28;21017;-63
2023/03/20 07:16:39;;;;;;;37.17;23.90;;;9.60;99.90;;;;;;5054462;28;20497;-63
2023/03/20 07:19:05;;;;;;;37.47;25.20;;;9.60;99.90;;;;;;5055287;28;20627;-63
2023/03/20 07:21:33;;;;;;;46.53;24.30;;;9.50;99.90;;;;;;5055463;28;20549;-63
2023/03/20 07:24:00;;;;;;;39.20;24.63;;;9.40;99.90;;;;;;5055367;28;20461;-63
2023/03/20 07:26:27;;;;;;;39.27;24.43;;;9.40;99.90;;;;;;5055636;28;20465;-63
2023/03/20 07:28:54;;;;;;;43.80;24.10;;;9.40;99.90;;;;;;5055683;28;20562;-63
2023/03/20 07:31:22;;;;;;;41.70;24.80;;;9.40;99.90;;;;;;5055708;28;20459;-63
2023/03/20 07:33:50;;;;;;;41.87;25.07;;;9.40;99.90;;;;;;5055161;28;20508;-63
2023/03/20 07:36:18;;;;;;;42.37;24.80;;;9.30;99.90;;;;;;5054737;28;20481;-64
2023/03/20 07:38:45;;;;;;;40.97;23.07;;;9.30;99.90;;;;;;5054795;28;20466;-60
2023/03/20 07:41:11;;;;;;;37.63;22.87;;;9.30;99.90;;;;;;5054874;28;20552;-64
2023/03/20 07:43:38;;;;;;;36.40;22.77;;;9.20;99.90;;;;;;5054972;28;20546;-62
2023/03/20 07:46:07;;;;;;;38.27;21.90;;;9.20;99.90;;;;;;5055057;28;20465;-63
2023/03/20 07:48:35;;;;;;;36.17;21.40;;;9.20;99.90;;;;;;5055562;28;20542;-63
2023/03/20 07:51:03;;;;;;;34.10;20.43;;;9.20;99.90;;;;;;5054716;28;20455;-63
2023/03/20 07:53:30;;;;;;;38.37;21.97;;;9.20;99.90;;;;;;5055384;28;20570;-64
2023/03/20 07:55:57;;;;;;;34.80;20.43;;;9.20;99.90;;;;;;5054971;28;20463;-63
2023/03/20 07:58:24;;;;;;;35.60;20.53;;;9.30;99.90;;;;;;5055670;28;20465;-68
2023/03/20 08:00:50;;;;;;;37.87;21.43;;;9.30;99.90;;;;;;5054953;28;20823;-67
2023/03/20 08:03:17;;;;;;;37.40;21.83;;;9.40;99.90;;;;;;5054625;28;20535;-66
2023/03/20 08:05:44;;;;;;;39.90;21.90;;;9.50;99.90;;;;;;5054583;28;20469;-67
2023/03/20 08:08:12;;;;;;;37.97;20.83;;;9.50;99.90;;;;;;5054433;28;20466;-67
2023/03/20 08:10:39;;;;;;;35.53;21.27;;;9.50;99.90;;;;;;5054518;28;20460;-67
2023/03/20 08:13:06;;;;;;;36.10;20.40;;;9.60;99.90;;;;;;5054891;28;20479;-67
2023/03/20 08:15:33;;;;;;;37.17;20.80;;;9.70;99.90;;;;;;5054071;28;20573;-67
2023/03/20 08:18:00;;;;;;;32.00;19.97;;;9.80;99.90;;;;;;5054354;28;20465;-67
2023/03/20 08:20:27;;;;;;;34.93;20.73;;;9.90;99.90;;;;;;5054390;28;20574;-67
2023/03/20 08:22:55;;;;;;;33.23;19.90;;;9.90;99.90;;;;;;5054598;28;20470;-67
2023/03/20 08:25:23;;;;;;;34.23;20.13;;;9.90;99.90;;;;;;5054342;28;20455;-68
2023/03/20 08:27:50;;;;;;;36.07;19.97;;;9.80;99.90;;;;;;5054207;28;20775;-68
2023/03/20 08:30:17;;;;;;;30.93;17.60;;;9.70;99.90;;;;;;5054519;28;20654;-68
2023/03/20 08:32:44;;;;;;;32.20;18.77;;;9.60;99.90;;;;;;5054224;28;20455;-68
2023/03/20 08:35:11;;;;;;;34.43;19.70;;;9.60;99.90;;;;;;5054229;28;20479;-67
2023/03/20 08:37:38;;;;;;;31.97;18.00;;;9.60;99.90;;;;;;5057935;28;20930;-67
2023/03/20 08:40:06;;;;;;;30.60;17.43;;;9.70;99.90;;;;;;5057958;28;20461;-67
2023/03/20 08:42:35;;;;;;;32.87;18.70;;;9.80;99.90;;;;;;5058476;28;20455;-67
2023/03/20 08:45:02;;;;;;;29.43;17.40;;;9.90;99.90;;;;;;5058345;28;20447;-67
2023/03/20 08:47:29;;;;;;;32.47;18.10;;;10.10;99.90;;;;;;5058151;28;20461;-67
2023/03/20 08:49:55;;;;;;;28.87;17.97;;;10.30;99.90;;;;;;5058152;28;20451;-68
2023/03/20 08:52:22;;;;;;;31.07;17.93;;;10.40;99.90;;;;;;5057983;28;20455;-67
2023/03/20 08:54:50;;;;;;;27.10;16.13;;;10.60;99.90;;;;;;5057816;28;20478;-67
2023/03/20 08:57:16;;;;;;;30.27;16.80;;;10.70;99.90;;;;;;5057988;28;20950;-67
2023/03/20 08:59:45;;;;;;;32.20;16.90;;;10.80;99.90;;;;;;5058102;28;20565;-67
2023/03/20 09:02:12;;;;;;;23.63;16.37;;;10.90;99.90;;;;;;5058768;28;20470;-67
2023/03/20 09:04:39;;;;;;;28.30;15.70;;;11.00;99.90;;;;;;5064595;28;20545;-67
2023/03/20 09:07:07;;;;;;;27.13;15.10;;;11.10;99.90;;;;;;5060471;28;20451;-67
2023/03/20 09:09:34;;;;;;;26.63;15.90;;;11.00;99.90;;;;;;5057197;28;20519;-67
2023/03/20 09:12:01;;;;;;;27.40;16.33;;;11.00;99.90;;;;;;5057763;28;20874;-67
2023/03/20 09:14:28;;;;;;;23.00;15.33;;;11.00;99.90;;;;;;5058986;28;20471;-67
2023/03/20 09:16:56;;;;;;;26.50;15.53;;;10.90;99.90;;;;;;5058157;28;20531;-67
2023/03/20 09:19:23;;;;;;;23.10;15.17;;;10.90;99.90;;;;;;5057822;28;20459;-67
2023/03/20 09:21:50;;;;;;;26.30;15.23;;;10.80;99.90;;;;;;5057994;28;20465;-67
2023/03/20 09:24:17;;;;;;;27.50;15.80;;;10.80;99.90;;;;;;5058129;28;20659;-66
2023/03/20 09:26:44;;;;;;;28.00;15.90;;;10.90;99.90;;;;;;5058660;28;20538;-66
2023/03/20 09:29:11;;;;;;;25.20;14.80;;;11.00;99.90;;;;;;5058840;28;20517;-66
2023/03/20 09:31:38;;;;;;;22.37;13.50;;;11.00;99.90;;;;;;5058300;28;20520;-66
2023/03/20 09:34:06;;;;;;;23.00;14.00;;;11.00;99.90;;;;;;5057860;28;20566;-66
2023/03/20 09:36:33;;;;;;;23.00;13.03;;;10.90;99.90;;;;;;5058011;28;20482;-67
2023/03/20 09:39:00;;;;;;;17.33;11.67;;;11.00;99.90;;;;;;5057682;28;20785;-67
2023/03/20 09:41:30;;;;;;;22.40;13.13;;;11.10;99.90;;;;;;5057424;28;20461;-67
2023/03/20 09:44:14;;;;;;;21.60;13.50;;;11.20;99.90;;;;;;5057520;28;20505;-65
2023/03/20 09:47:00;;;;;;;20.53;12.23;;;11.20;99.90;;;;;;5056638;28;20498;-66
2023/03/20 09:49:40;;;;;;;17.43;11.67;;;11.20;99.90;;;;;;5057877;28;20453;-67
2023/03/20 09:52:19;;;;;;;16.20;10.90;;;11.40;99.90;;;;;;5057373;28;20478;-65
2023/03/20 09:54:50;;;;;;;15.83;10.50;;;11.40;99.90;;;;;;5057830;28;20795;-66
2023/03/20 09:57:22;;;;;;;18.33;10.43;;;11.30;99.90;;;;;;5057850;28;20789;-67
2023/03/20 09:59:53;;;;;;;15.90;11.13;;;11.30;99.90;;;;;;5057339;28;20482;-66
2023/03/20 10:02:29;;;;;;;15.47;10.40;;;11.30;99.90;;;;;;5057656;28;20542;-67
2023/03/20 10:04:58;;;;;;;16.57;10.50;;;11.40;99.90;;;;;;5057788;28;20439;-67
2023/03/20 10:07:25;;;;;;;16.27;10.40;;;11.40;99.90;;;;;;5056956;28;20495;-67
2023/03/20 10:09:52;;;;;;;15.40;9.67;;;11.40;99.90;;;;;;5057491;28;20516;-66
2023/03/20 10:12:48;;;;;;;16.30;10.17;;;11.50;99.90;;;;;;5057474;28;20506;-65
2023/03/20 10:15:21;;;;;;;16.60;10.60;;;11.50;99.90;;;;;;5056846;28;20482;-67
2023/03/20 10:17:57;;;;;;;15.43;9.33;;;11.50;99.90;;;;;;5057131;28;20526;-67
2023/03/20 10:20:33;;;;;;;15.30;9.67;;;11.40;99.90;;;;;;5056509;28;20486;-65
2023/03/20 10:23:06;;;;;;;12.70;8.70;;;11.30;99.90;;;;;;5056918;28;20439;-66
2023/03/20 10:25:40;;;;;;;13.03;8.93;;;11.30;99.90;;;;;;5056504;28;20450;-66
2023/03/20 10:28:13;;;;;;;14.17;9.43;;;11.30;99.90;;;;;;5056026;28;20522;-66
2023/03/20 10:30:54;;;;;;;16.60;9.90;;;11.30;99.90;;;;;;5056169;28;20444;-67
2023/03/20 10:33:30;;;;;;;16.40;10.00;;;11.30;99.90;;;;;;5056896;28;20447;-67
2023/03/20 10:36:18;;;;;;;14.37;9.03;;;11.20;99.90;;;;;;5056757;28;20526;-67
2023/03/20 10:38:51;;;;;;;14.23;8.83;;;11.30;99.90;;;;;;5056426;28;20748;-66
2023/03/20 10:41:22;;;;;;;14.87;9.60;;;11.30;99.90;;;;;;5056817;28;20966;-67
2023/03/20 10:43:52;;;;;;;14.33;9.30;;;11.30;99.90;;;;;;5056667;28;20538;-67
2023/03/20 10:46:25;;;;;;;13.10;8.70;;;11.30;99.90;;;;;;5056562;28;20775;-67
2023/03/20 10:48:57;;;;;;;10.50;7.70;;;11.30;99.90;;;;;;5056390;28;20542;-66
2023/03/20 10:51:36;;;;;;;13.40;8.10;;;11.40;99.90;;;;;;5057079;28;20440;-67
2023/03/20 10:54:06;;;;;;;13.50;8.37;;;11.40;99.90;;;;;;5056756;28;20641;-67
2023/03/20 10:56:36;;;;;;;13.87;8.57;;;11.40;99.90;;;;;;5055963;28;20466;-66
2023/03/20 10:59:06;;;;;;;15.30;9.30;;;11.40;99.90;;;;;;5055752;28;20455;-69
2023/03/20 11:01:33;;;;;;;13.17;8.60;;;11.50;99.90;;;;;;5056635;28;20552;-68
2023/03/20 11:04:00;;;;;;;16.50;9.67;;;11.70;99.90;;;;;;5056238;28;20462;-67
2023/03/20 11:06:33;;;;;;;16.03;8.37;;;11.80;99.90;;;;;;5056004;28;20545;-67
2023/03/20 11:09:11;;;;;;;12.20;7.93;;;11.80;99.90;;;;;;5055943;28;20456;-66
2023/03/20 11:11:43;;;;;;;11.00;7.83;;;11.90;99.90;;;;;;5055944;28;20542;-66
2023/03/20 11:14:17;;;;;;;12.23;7.97;;;11.90;99.90;;;;;;5056680;28;20467;-66
2023/03/20 11:16:48;;;;;;;12.87;7.20;;;11.90;99.90;;;;;;5056333;28;20466;-67
2023/03/20 11:19:16;;;;;;;13.23;7.60;;;11.80;99.90;;;;;;5056168;28;20931;-67
2023/03/20 11:21:50;;;;;;;9.50;6.40;;;11.80;99.90;;;;;;5055986;28;20570;-68
2023/03/20 11:24:27;;;;;;;12.10;7.63;;;11.90;99.90;;;;;;5056082;28;20439;-66
2023/03/20 11:27:04;;;;;;;13.30;6.80;;;12.00;99.90;;;;;;5055950;28;20439;-67
2023/03/20 11:29:34;;;;;;;10.87;7.83;;;11.90;99.90;;;;;;5057199;28;20459;-67
2023/03/20 11:32:07;;;;;;;11.00;7.47;;;12.00;99.90;;;;;;5057742;28;20451;-67
2023/03/20 11:34:39;;;;;;;11.67;7.13;;;12.00;99.90;;;;;;5058196;28;20471;-67
2023/03/20 11:37:22;;;;;;;9.47;6.57;;;11.80;99.90;;;;;;5055816;28;20444;-67
2023/03/20 11:40:14;;;;;;;10.93;7.30;;;11.80;99.90;;;;;;5056205;28;20440;-65
2023/03/20 11:42:52;;;;;;;11.30;6.97;;;11.80;99.90;;;;;;5056304;28;20443;-66
2023/03/20 11:45:19;;;;;;;11.30;7.53;;;12.00;99.90;;;;;;5055620;28;20446;-65
2023/03/20 11:47:51;;;;;;;12.30;8.10;;;12.00;99.90;;;;;;5055553;28;20827;-64
2023/03/20 11:50:31;;;;;;;11.60;7.80;;;12.00;99.90;;;;;;5055307;28;20448;-66
2023/03/20 11:53:01;;;;;;;15.03;7.77;;;11.90;99.90;;;;;;5055474;28;20439;-66
2023/03/20 11:55:30;;;;;;;11.40;8.27;;;11.80;99.90;;;;;;5055195;28;20493;-65
2023/03/20 11:57:58;;;;;;;9.70;7.17;;;11.80;99.90;;;;;;5055410;28;20455;-66
2023/03/20 12:00:28;;;;;;;11.90;7.30;;;11.70;99.90;;;;;;5054739;28;20943;-66
2023/03/20 12:02:56;;;;;;;10.80;7.63;;;11.70;99.90;;;;;;5054270;28;20474;-66
2023/03/20 12:05:32;;;;;;;11.30;7.83;;;11.70;99.90;;;;;;5055815;28;20821;-66
2023/03/20 12:08:03;;;;;;;12.10;8.60;;;11.70;99.90;;;;;;5054626;28;20912;-66
2023/03/20 12:10:38;;;;;;;9.67;7.00;;;11.80;99.90;;;;;;5056157;28;20836;-65
2023/03/20 12:13:11;;;;;;;13.70;8.77;;;11.60;99.90;;;;;;5059169;28;20452;-65
2023/03/20 12:15:42;;;;;;;11.90;8.73;;;11.60;99.90;;;;;;5058928;28;20711;-66
2023/03/20 12:18:15;;;;;;;14.70;8.23;;;11.60;99.90;;;;;;5059385;28;20526;-66
2023/03/20 12:20:52;;;;;;;12.03;8.17;;;11.50;99.90;;;;;;5058893;28;20818;-67
2023/03/20 12:23:31;;;;;;;12.27;8.40;;;11.70;99.90;;;;;;5058955;28;20921;-66
2023/03/20 12:26:03;;;;;;;13.33;8.00;;;11.70;99.90;;;;;;5059054;28;20466;-66
2023/03/20 12:28:36;;;;;;;14.00;9.60;;;11.80;99.90;;;;;;5059000;28;20773;-66
2023/03/20 12:31:14;;;;;;;15.20;8.53;;;11.80;99.90;;;;;;5058314;28;20443;-66
2023/03/20 12:33:50;;;;;;;11.90;7.53;;;11.80;99.90;;;;;;5058401;28;20446;-66
2023/03/20 12:36:23;;;;;;;11.77;7.73;;;11.80;99.90;;;;;;5058605;28;20474;-67
2023/03/20 12:38:51;;;;;;;13.27;8.40;;;11.70;99.90;;;;;;5058582;28;20536;-66
2023/03/20 12:41:24;;;;;;;10.50;8.40;;;11.60;99.90;;;;;;5058845;28;20489;-66
2023/03/20 12:44:24;;;;;;;14.83;9.00;;;11.60;99.90;;;;;;5058320;28;20918;-67
2023/03/20 12:47:02;;;;;;;11.33;7.60;;;11.60;99.90;;;;;;5040411;28;20473;-67
2023/03/20 12:49:40;;;;;;;16.90;9.60;;;11.60;99.90;;;;;;5059011;28;20439;-66
2023/03/20 12:52:15;;;;;;;13.80;9.27;;;11.50;99.90;;;;;;5058766;28;20474;-66
2023/03/20 12:55:06;;;;;;;16.33;9.57;;;11.60;99.90;;;;;;5058670;28;20828;-66